Time;durP1;ratioP1;P1;durP2;ratioP2;P2;SDS_P1;SDS_P2;PMS_P1;PMS_P2;Temp;Humidity;BMP_temperature;BMP_pressure;BME280_temperature;BME280_humidity;BME280_pressure;Samples;Min_cycle;Max_cycle;Signal;HPM_P1;HPM_P2
2022/05/09 00:02:06;;;;;;;5.80;3.85;;;;;;;;;;5110711;28;20130;-48
2022/05/09 00:04:31;;;;;;;2.92;2.58;;;;;;;;;;5111749;28;20053;-52
2022/05/09 00:06:56;;;;;;;3.95;2.85;;;;;;;;;;5110932;28;20162;-53
2022/05/09 00:09:22;;;;;;;4.82;4.22;;;;;;;;;;5108023;28;20215;-50
2022/05/09 00:11:47;;;;;;;8.48;3.47;;;;;;;;;;5107207;28;20051;-46
2022/05/09 00:14:12;;;;;;;8.98;4.35;;;;;;;;;;5107391;28;20039;-46
2022/05/09 00:16:38;;;;;;;8.10;3.72;;;;;;;;;;5108012;28;20054;-48
2022/05/09 00:19:05;;;;;;;3.92;3.33;;;;;;;;;;5107648;28;20077;-52
2022/05/09 00:21:32;;;;;;;4.55;3.28;;;;;;;;;;5110941;28;20051;-45
2022/05/09 00:23:57;;;;;;;2.78;2.45;;;;;;;;;;5108575;28;20091;-48
2022/05/09 00:26:24;;;;;;;4.05;3.15;;;;;;;;;;5107639;28;20078;-47
2022/05/09 00:28:49;;;;;;;6.13;3.40;;;;;;;;;;5108805;28;20069;-53
2022/05/09 00:31:14;;;;;;;6.47;4.10;;;;;;;;;;5109570;28;20039;-50
2022/05/09 00:33:40;;;;;;;6.78;2.75;;;;;;;;;;5108429;28;20042;-54
2022/05/09 00:36:05;;;;;;;4.68;2.70;;;;;;;;;;5112054;28;20047;-53
2022/05/09 00:38:31;;;;;;;2.40;2.20;;;;;;;;;;5110938;28;20092;-48
2022/05/09 00:43:40;;;;;;;4.43;3.08;;;;;;;;;;5108006;28;20149;-52
2022/05/09 00:46:06;;;;;;;4.55;3.08;;;;;;;;;;5111828;28;20047;-48
2022/05/09 00:48:31;;;;;;;5.60;3.17;;;;;;;;;;5110909;28;20035;-50
2022/05/09 00:50:58;;;;;;;4.45;2.28;;;;;;;;;;5109976;28;20055;-49
2022/05/09 00:53:24;;;;;;;6.28;2.17;;;;;;;;;;5113319;28;20034;-49
2022/05/09 00:55:52;;;;;;;6.00;4.22;;;;;;;;;;5111437;28;20457;-52
2022/05/09 00:58:21;;;;;;;5.78;3.15;;;;;;;;;;5110559;28;20058;-54
2022/05/09 01:00:47;;;;;;;4.30;2.88;;;;;;;;;;5115458;28;20143;-50
2022/05/09 01:03:18;;;;;;;3.88;3.13;;;;;;;;;;5113237;28;20050;-48
2022/05/09 01:05:50;;;;;;;2.53;2.08;;;;;;;;;;5111171;28;20044;-49
2022/05/09 01:08:15;;;;;;;5.45;2.20;;;;;;;;;;5109875;28;20043;-51
2022/05/09 01:10:41;;;;;;;4.07;2.63;;;;;;;;;;5111994;28;20134;-51
2022/05/09 01:13:08;;;;;;;3.88;2.75;;;;;;;;;;5114130;28;20054;-48
2022/05/09 01:15:34;;;;;;;4.85;3.28;;;;;;;;;;5112951;28;20084;-45
2022/05/09 01:18:01;;;;;;;1.95;1.60;;;;;;;;;;5112405;28;20040;-50
2022/05/09 01:20:26;;;;;;;11.13;2.05;;;;;;;;;;5111369;28;20039;-46
2022/05/09 01:22:56;;;;;;;4.75;3.33;;;;;;;;;;5112712;28;20097;-50
2022/05/09 01:25:21;;;;;;;6.05;3.67;;;;;;;;;;5112681;28;20142;-49
2022/05/09 01:27:47;;;;;;;6.68;3.67;;;;;;;;;;5108128;28;20178;-47
2022/05/09 01:30:20;;;;;;;4.78;3.58;;;;;;;;;;5113357;28;20100;-48
2022/05/09 01:32:55;;;;;;;2.85;2.35;;;;;;;;;;5109609;28;20122;-48
2022/05/09 01:35:22;;;;;;;5.75;2.65;;;;;;;;;;5115087;28;20233;-47
2022/05/09 01:37:49;;;;;;;5.97;3.38;;;;;;;;;;5110480;28;20452;-51
2022/05/09 01:40:15;;;;;;;3.28;2.00;;;;;;;;;;5111501;28;20048;-50
2022/05/09 01:42:41;;;;;;;3.35;2.60;;;;;;;;;;5115351;28;20062;-46
2022/05/09 01:45:07;;;;;;;7.45;3.47;;;;;;;;;;5110136;28;20090;-46
2022/05/09 01:50:16;;;;;;;4.25;3.42;;;;;;;;;;5109771;28;20042;-52
2022/05/09 01:52:41;;;;;;;3.30;2.25;;;;;;;;;;5112463;28;20419;-51
2022/05/09 01:55:07;;;;;;;4.57;2.50;;;;;;;;;;5117967;28;20126;-50
2022/05/09 01:57:32;;;;;;;2.35;2.15;;;;;;;;;;5112779;28;20069;-51
2022/05/09 01:59:58;;;;;;;4.50;3.08;;;;;;;;;;5107104;28;20051;-47
2022/05/09 02:02:23;;;;;;;7.15;2.63;;;;;;;;;;5108497;28;20566;-52
2022/05/09 02:04:49;;;;;;;6.70;3.45;;;;;;;;;;5111919;27;20577;-49
2022/05/09 02:07:16;;;;;;;3.83;2.47;;;;;;;;;;5113222;28;20047;-53
2022/05/09 02:09:43;;;;;;;4.45;2.33;;;;;;;;;;5110233;28;20036;-49
2022/05/09 02:12:09;;;;;;;3.42;2.72;;;;;;;;;;5113265;28;20059;-50
2022/05/09 02:14:34;;;;;;;3.55;3.25;;;;;;;;;;5110208;28;20036;-46
2022/05/09 02:17:01;;;;;;;3.55;2.45;;;;;;;;;;5113708;28;20047;-46
2022/05/09 02:19:27;;;;;;;4.45;2.63;;;;;;;;;;5092566;28;20058;-51
2022/05/09 02:21:52;;;;;;;4.20;3.28;;;;;;;;;;5112162;28;20047;-53
2022/05/09 02:24:17;;;;;;;4.75;3.03;;;;;;;;;;5113810;28;20051;-51
2022/05/09 02:26:43;;;;;;;5.40;2.97;;;;;;;;;;5113984;28;20056;-47
2022/05/09 02:29:09;;;;;;;4.35;3.13;;;;;;;;;;5111451;28;22014;-52
2022/05/09 02:31:34;;;;;;;4.10;3.22;;;;;;;;;;5111792;28;20140;-49
2022/05/09 02:34:01;;;;;;;3.10;2.72;;;;;;;;;;5116054;28;20040;-46
2022/05/09 02:36:27;;;;;;;4.28;3.33;;;;;;;;;;5113321;28;20040;-51
2022/05/09 02:38:52;;;;;;;3.33;2.88;;;;;;;;;;5115241;28;20031;-50
2022/05/09 02:41:17;;;;;;;3.47;2.08;;;;;;;;;;5110747;28;20901;-53
2022/05/09 02:43:43;;;;;;;5.15;2.35;;;;;;;;;;5086059;28;20500;-51
2022/05/09 02:46:08;;;;;;;4.70;2.75;;;;;;;;;;5114273;28;20055;-56
2022/05/09 02:48:37;;;;;;;7.75;3.47;;;;;;;;;;5117421;28;20040;-48
2022/05/09 02:51:05;;;;;;;8.18;2.88;;;;;;;;;;5109687;28;20039;-50
2022/05/09 02:53:30;;;;;;;3.33;2.95;;;;;;;;;;5092784;28;20592;-53
2022/05/09 02:55:55;;;;;;;4.25;3.13;;;;;;;;;;5112057;28;20126;-48
2022/05/09 02:58:21;;;;;;;2.70;2.45;;;;;;;;;;5095254;28;20420;-51
2022/05/09 03:00:46;;;;;;;9.75;3.47;;;;;;;;;;5117030;28;20130;-52
2022/05/09 03:05:56;;;;;;;3.13;2.70;;;;;;;;;;5109645;28;20051;-49
2022/05/09 03:08:21;;;;;;;4.75;3.25;;;;;;;;;;5113619;28;20051;-50
2022/05/09 03:10:47;;;;;;;3.05;2.40;;;;;;;;;;5114678;28;20047;-54
2022/05/09 03:13:13;;;;;;;5.13;2.85;;;;;;;;;;5110124;28;20479;-52
2022/05/09 03:15:43;;;;;;;3.53;3.13;;;;;;;;;;5109439;27;20047;-48
2022/05/09 03:18:08;;;;;;;2.67;2.25;;;;;;;;;;5112944;28;20709;-49
2022/05/09 03:20:34;;;;;;;9.73;3.20;;;;;;;;;;5111756;28;20055;-52
2022/05/09 03:22:59;;;;;;;2.80;2.58;;;;;;;;;;5106009;28;20496;-49
2022/05/09 03:25:26;;;;;;;5.38;2.85;;;;;;;;;;5104285;28;20052;-50
2022/05/09 03:27:51;;;;;;;4.38;2.25;;;;;;;;;;5107895;28;20051;-47
2022/05/09 03:30:17;;;;;;;5.53;2.55;;;;;;;;;;5114116;28;20099;-50
2022/05/09 03:32:44;;;;;;;3.67;2.60;;;;;;;;;;5115486;28;20083;-51
2022/05/09 03:35:10;;;;;;;3.13;2.08;;;;;;;;;;5112978;28;20036;-49
2022/05/09 03:37:36;;;;;;;2.40;2.17;;;;;;;;;;5109614;28;20054;-48
2022/05/09 03:40:02;;;;;;;2.95;2.10;;;;;;;;;;5110725;28;20443;-48
2022/05/09 03:42:27;;;;;;;6.38;3.72;;;;;;;;;;5110995;28;20078;-52
2022/05/09 03:44:53;;;;;;;5.10;2.83;;;;;;;;;;5110894;28;20044;-47
2022/05/09 03:47:18;;;;;;;3.92;3.53;;;;;;;;;;5108507;28;20180;-47
2022/05/09 03:49:43;;;;;;;3.83;3.45;;;;;;;;;;5107100;28;20052;-50
2022/05/09 03:52:09;;;;;;;10.57;3.33;;;;;;;;;;5114539;28;20039;-47
2022/05/09 03:54:34;;;;;;;3.45;2.65;;;;;;;;;;5111565;28;20658;-49
2022/05/09 03:57:00;;;;;;;4.55;4.15;;;;;;;;;;5109648;28;20032;-50
2022/05/09 03:59:25;;;;;;;6.72;3.85;;;;;;;;;;5109671;28;20424;-47
2022/05/09 04:01:51;;;;;;;5.75;3.17;;;;;;;;;;5116295;28;20075;-47
2022/05/09 04:04:17;;;;;;;4.38;3.17;;;;;;;;;;5112149;28;20043;-49
2022/05/09 04:06:42;;;;;;;4.05;3.42;;;;;;;;;;5111273;28;20043;-53
2022/05/09 04:09:07;;;;;;;12.98;5.95;;;;;;;;;;5108409;28;20350;-46
2022/05/09 04:11:33;;;;;;;7.68;3.28;;;;;;;;;;5111290;28;20142;-47
2022/05/09 04:13:58;;;;;;;3.28;2.72;;;;;;;;;;5114016;28;20043;-49
2022/05/09 04:19:07;;;;;;;4.10;3.15;;;;;;;;;;5108412;28;20041;-49
2022/05/09 04:21:32;;;;;;;8.50;2.83;;;;;;;;;;5107421;28;20122;-46
2022/05/09 04:23:58;;;;;;;3.63;2.92;;;;;;;;;;5109909;28;20593;-47
2022/05/09 04:26:26;;;;;;;5.15;2.33;;;;;;;;;;5107353;28;20067;-47
2022/05/09 04:28:52;;;;;;;4.93;2.90;;;;;;;;;;5111447;28;20662;-48
2022/05/09 04:31:19;;;;;;;36.05;9.60;;;;;;;;;;5107374;28;20075;-52
2022/05/09 04:33:45;;;;;;;3.75;2.58;;;;;;;;;;5109126;28;20126;-48
2022/05/09 04:36:10;;;;;;;3.30;2.95;;;;;;;;;;5113758;28;20472;-51
2022/05/09 04:38:38;;;;;;;3.35;2.30;;;;;;;;;;5106729;28;20035;-49
2022/05/09 04:41:04;;;;;;;2.67;2.28;;;;;;;;;;5104173;28;20052;-48
2022/05/09 04:43:31;;;;;;;2.45;2.08;;;;;;;;;;5109656;28;20099;-45
2022/05/09 04:46:00;;;;;;;7.40;4.45;;;;;;;;;;5108483;28;20054;-47
2022/05/09 04:48:25;;;;;;;3.25;2.72;;;;;;;;;;5108667;28;20035;-45
2022/05/09 04:50:51;;;;;;;4.05;3.13;;;;;;;;;;5109786;28;20058;-45
2022/05/09 04:53:19;;;;;;;7.55;4.25;;;;;;;;;;5107668;28;20131;-51
2022/05/09 04:55:45;;;;;;;2.42;2.10;;;;;;;;;;5109423;28;20448;-50
2022/05/09 04:58:28;;;;;;;3.55;2.80;;;;;;;;;;5111027;28;20160;-50
2022/05/09 05:00:54;;;;;;;4.43;2.90;;;;;;;;;;5105969;28;20043;-45
2022/05/09 05:03:19;;;;;;;4.72;3.03;;;;;;;;;;5101125;28;20169;-46
2022/05/09 05:05:45;;;;;;;3.80;3.17;;;;;;;;;;5114014;28;20130;-47
2022/05/09 05:08:14;;;;;;;6.22;2.67;;;;;;;;;;5105903;28;20459;-46
2022/05/09 05:10:39;;;;;;;4.40;3.03;;;;;;;;;;5108027;28;20048;-47
2022/05/09 05:13:05;;;;;;;4.57;2.97;;;;;;;;;;5113275;28;20121;-47
2022/05/09 05:15:31;;;;;;;5.68;3.05;;;;;;;;;;5111739;28;20051;-48
2022/05/09 05:17:57;;;;;;;14.35;3.63;;;;;;;;;;5107613;28;20134;-53
2022/05/09 05:20:22;;;;;;;4.68;3.33;;;;;;;;;;5112715;28;20138;-47
2022/05/09 05:22:48;;;;;;;4.75;3.13;;;;;;;;;;5109354;28;20703;-45
2022/05/09 05:25:15;;;;;;;6.53;3.85;;;;;;;;;;5105355;28;20048;-45
2022/05/09 05:27:40;;;;;;;4.15;3.17;;;;;;;;;;5108853;28;20132;-46
2022/05/09 05:30:07;;;;;;;8.43;5.63;;;;;;;;;;5111099;28;20500;-51
2022/05/09 05:32:35;;;;;;;9.82;5.10;;;;;;;;;;5109235;28;20043;-51
2022/05/09 05:35:00;;;;;;;3.20;2.90;;;;;;;;;;5110262;28;20108;-45
2022/05/09 05:37:26;;;;;;;7.43;4.03;;;;;;;;;;5111860;28;20500;-46
2022/05/09 05:39:52;;;;;;;5.60;3.53;;;;;;;;;;5109693;27;20062;-48
2022/05/09 05:42:18;;;;;;;7.13;3.83;;;;;;;;;;5109855;28;20080;-48
2022/05/09 05:44:43;;;;;;;3.45;3.05;;;;;;;;;;5107080;28;20527;-47
2022/05/09 05:47:10;;;;;;;5.50;2.97;;;;;;;;;;5105868;28;20070;-50
2022/05/09 05:49:37;;;;;;;6.40;4.13;;;;;;;;;;5112091;28;20665;-45
2022/05/09 05:52:05;;;;;;;4.10;3.20;;;;;;;;;;5114132;28;20039;-52
2022/05/09 05:54:31;;;;;;;8.73;5.22;;;;;;;;;;5114303;28;20600;-46
2022/05/09 05:56:56;;;;;;;5.03;3.92;;;;;;;;;;5111361;28;20051;-46
2022/05/09 05:59:21;;;;;;;5.57;3.63;;;;;;;;;;5113717;28;20054;-48
2022/05/09 06:01:47;;;;;;;4.88;4.43;;;;;;;;;;5112682;28;20047;-45
2022/05/09 06:04:12;;;;;;;15.73;4.22;;;;;;;;;;5116127;28;20062;-45
2022/05/09 06:06:38;;;;;;;3.80;3.40;;;;;;;;;;5110801;28;20036;-45
2022/05/09 06:09:05;;;;;;;7.70;3.80;;;;;;;;;;5107315;28;20055;-45
2022/05/09 06:11:31;;;;;;;7.20;4.32;;;;;;;;;;5113527;28;20051;-48
2022/05/09 06:13:56;;;;;;;5.68;4.53;;;;;;;;;;5111719;28;20070;-52
2022/05/09 06:16:21;;;;;;;7.28;3.97;;;;;;;;;;5108976;28;20054;-49
2022/05/09 06:18:51;;;;;;;5.15;3.22;;;;;;;;;;5111426;28;20122;-52
2022/05/09 06:21:17;;;;;;;4.50;3.13;;;;;;;;;;5109147;28;20181;-51
2022/05/09 06:23:43;;;;;;;74.88;13.82;;;;;;;;;;5109837;28;20134;-48
2022/05/09 06:26:08;;;;;;;4.63;3.65;;;;;;;;;;5112599;28;20075;-47
2022/05/09 06:28:33;;;;;;;5.93;3.90;;;;;;;;;;5111921;28;20046;-48
2022/05/09 06:30:59;;;;;;;16.95;8.27;;;;;;;;;;5113033;28;20051;-44
2022/05/09 06:33:25;;;;;;;6.55;5.95;;;;;;;;;;5111303;28;20457;-46
2022/05/09 06:35:51;;;;;;;4.85;4.35;;;;;;;;;;5111993;28;20035;-46
2022/05/09 06:38:18;;;;;;;4.95;4.30;;;;;;;;;;5113984;28;20043;-48
2022/05/09 06:40:44;;;;;;;8.50;4.38;;;;;;;;;;5109660;28;20116;-48
2022/05/09 06:43:09;;;;;;;6.97;4.03;;;;;;;;;;5115570;28;20076;-48
2022/05/09 06:45:35;;;;;;;4.53;3.83;;;;;;;;;;5110273;28;20051;-53
2022/05/09 06:48:01;;;;;;;4.60;3.58;;;;;;;;;;5107132;28;20536;-44
2022/05/09 06:50:27;;;;;;;6.22;4.72;;;;;;;;;;5108050;28;20049;-48
2022/05/09 06:52:53;;;;;;;9.50;5.13;;;;;;;;;;5112016;28;20039;-47
2022/05/09 06:55:18;;;;;;;7.18;6.43;;;;;;;;;;5108771;28;20523;-52
2022/05/09 06:57:44;;;;;;;17.42;15.55;;;;;;;;;;5109124;28;20043;-51
2022/05/09 07:00:11;;;;;;;25.48;23.15;;;;;;;;;;5107759;28;20042;-53
2022/05/09 07:02:37;;;;;;;27.85;24.92;;;;;;;;;;5106931;28;20521;-52
2022/05/09 07:05:07;;;;;;;34.58;22.13;;;;;;;;;;5108425;28;20058;-51
2022/05/09 07:07:32;;;;;;;31.58;13.32;;;;;;;;;;5110427;28;20093;-49
2022/05/09 07:09:57;;;;;;;22.35;12.05;;;;;;;;;;5109272;28;20082;-49
2022/05/09 07:12:23;;;;;;;20.52;11.30;;;;;;;;;;5105298;28;20569;-49
2022/05/09 07:14:48;;;;;;;14.93;9.60;;;;;;;;;;5111201;28;20503;-50
2022/05/09 07:17:13;;;;;;;25.58;10.60;;;;;;;;;;5114083;28;20042;-54
2022/05/09 07:19:39;;;;;;;12.73;9.40;;;;;;;;;;5107601;28;20052;-50
2022/05/09 07:22:04;;;;;;;16.35;11.48;;;;;;;;;;5104541;28;20139;-51
2022/05/09 07:24:29;;;;;;;23.65;10.30;;;;;;;;;;5105833;28;20048;-49
2022/05/09 07:26:54;;;;;;;11.68;10.15;;;;;;;;;;5106071;28;20555;-49
2022/05/09 07:29:20;;;;;;;10.40;9.20;;;;;;;;;;5112684;28;20046;-47
2022/05/09 07:31:45;;;;;;;15.13;9.95;;;;;;;;;;5108202;28;20047;-46
2022/05/09 07:34:10;;;;;;;40.97;26.83;;;;;;;;;;5110645;28;20111;-49
2022/05/09 07:36:36;;;;;;;43.60;34.17;;;;;;;;;;5110803;28;20044;-49
2022/05/09 07:39:01;;;;;;;32.17;20.05;;;;;;;;;;5115846;28;20031;-47
2022/05/09 07:41:27;;;;;;;26.92;22.65;;;;;;;;;;5109310;28;20039;-46
2022/05/09 07:43:52;;;;;;;38.03;32.58;;;;;;;;;;5107675;28;20062;-47
2022/05/09 07:46:18;;;;;;;51.42;39.50;;;;;;;;;;5090114;28;20119;-45
2022/05/09 07:48:43;;;;;;;55.90;44.30;;;;;;;;;;5108977;28;20043;-52
2022/05/09 07:51:08;;;;;;;56.15;48.70;;;;;;;;;;5117135;28;20047;-48
2022/05/09 07:53:34;;;;;;;45.70;38.40;;;;;;;;;;5107093;28;20055;-45
2022/05/09 07:56:04;;;;;;;40.83;36.50;;;;;;;;;;5110430;28;20040;-47
2022/05/09 07:58:30;;;;;;;33.63;26.97;;;;;;;;;;5108221;28;20220;-50
2022/05/09 08:00:58;;;;;;;44.20;23.30;;;;;;;;;;5116324;28;20822;-53
2022/05/09 08:03:24;;;;;;;30.67;25.42;;;;;;;;;;5108216;28;20091;-46
2022/05/09 08:05:50;;;;;;;36.53;25.92;;;;;;;;;;5108818;28;20802;-50
2022/05/09 08:08:15;;;;;;;28.52;25.38;;;;;;;;;;5104889;28;20118;-45
2022/05/09 08:10:42;;;;;;;34.30;23.83;;;;;;;;;;5111853;28;20071;-46
2022/05/09 08:13:08;;;;;;;26.45;23.48;;;;;;;;;;5110092;28;20066;-50
2022/05/09 08:15:34;;;;;;;25.13;19.73;;;;;;;;;;5116505;28;20500;-49
2022/05/09 08:18:01;;;;;;;27.30;17.85;;;;;;;;;;5111830;28;20120;-51
2022/05/09 08:20:26;;;;;;;23.50;20.10;;;;;;;;;;5114721;28;20038;-48
2022/05/09 08:22:59;;;;;;;37.22;21.05;;;;;;;;;;5112382;28;20546;-49
2022/05/09 08:25:24;;;;;;;23.90;15.80;;;;;;;;;;5110355;28;20403;-47
2022/05/09 08:27:50;;;;;;;22.98;18.17;;;;;;;;;;5111544;28;20047;-52
2022/05/09 08:30:15;;;;;;;40.50;16.27;;;;;;;;;;5106882;28;20090;-47
2022/05/09 08:32:42;;;;;;;61.80;26.30;;;;;;;;;;5108196;28;20534;-50
2022/05/09 08:35:09;;;;;;;17.90;7.60;;;;;;;;;;5109553;28;20040;-46
2022/05/09 08:37:35;;;;;;;12.65;6.90;;;;;;;;;;5108975;28;20051;-50
2022/05/09 08:40:00;;;;;;;16.48;5.07;;;;;;;;;;5112284;28;20047;-48
2022/05/09 08:42:34;;;;;;;9.57;5.22;;;;;;;;;;5109764;28;20529;-50
2022/05/09 08:45:00;;;;;;;9.43;7.53;;;;;;;;;;5112666;28;20072;-48
2022/05/09 08:47:29;;;;;;;10.27;7.53;;;;;;;;;;5109468;28;20131;-47
2022/05/09 08:50:09;;;;;;;20.65;9.13;;;;;;;;;;5111340;28;20051;-47
2022/05/09 08:52:34;;;;;;;19.73;11.82;;;;;;;;;;5111202;28;20036;-46
2022/05/09 08:54:59;;;;;;;16.17;8.40;;;;;;;;;;5110940;28;20036;-45
2022/05/09 08:57:36;;;;;;;19.70;11.63;;;;;;;;;;5110298;28;20521;-45
2022/05/09 09:00:06;;;;;;;13.73;8.80;;;;;;;;;;5110260;28;20039;-45
2022/05/09 09:02:39;;;;;;;14.45;6.47;;;;;;;;;;5113200;28;20387;-48
2022/05/09 09:05:04;;;;;;;6.75;4.32;;;;;;;;;;5109297;28;20040;-52
2022/05/09 09:07:34;;;;;;;5.97;4.30;;;;;;;;;;5108663;28;20130;-45
2022/05/09 09:10:02;;;;;;;4.82;2.45;;;;;;;;;;5112254;28;21355;-47
2022/05/09 09:12:57;;;;;;;1.75;1.38;;;;;;;;;;5108952;28;20580;-50
2022/05/09 09:15:32;;;;;;;1.98;1.60;;;;;;;;;;5083715;28;20071;-50
2022/05/09 09:18:18;;;;;;;2.50;1.83;;;;;;;;;;5113214;28;20080;-53
2022/05/09 09:21:00;;;;;;;2.95;2.45;;;;;;;;;;5101552;28;20054;-51
2022/05/09 09:23:34;;;;;;;5.32;3.53;;;;;;;;;;5112308;28;20051;-47
2022/05/09 09:26:01;;;;;;;8.15;4.63;;;;;;;;;;5111224;28;20040;-47
2022/05/09 09:28:47;;;;;;;3.65;2.45;;;;;;;;;;5116665;28;20040;-53
2022/05/09 09:31:14;;;;;;;5.15;4.25;;;;;;;;;;5111088;28;20051;-50
2022/05/09 09:33:42;;;;;;;3.05;2.60;;;;;;;;;;5117355;28;20079;-49
2022/05/09 09:36:10;;;;;;;3.72;2.78;;;;;;;;;;5105301;28;20048;-51
2022/05/09 09:38:53;;;;;;;3.60;2.95;;;;;;;;;;5096122;28;20050;-51
2022/05/09 09:41:23;;;;;;;3.50;2.75;;;;;;;;;;5116677;28;20047;-49
2022/05/09 09:43:49;;;;;;;12.60;3.63;;;;;;;;;;5107851;28;20043;-46
2022/05/09 09:46:14;;;;;;;5.07;2.75;;;;;;;;;;5107003;28;20074;-52
2022/05/09 09:48:40;;;;;;;16.65;3.60;;;;;;;;;;5109399;28;20454;-53
2022/05/09 09:51:10;;;;;;;3.67;3.00;;;;;;;;;;5111857;28;20511;-51
2022/05/09 09:53:37;;;;;;;6.17;3.63;;;;;;;;;;5115972;28;20049;-52
2022/05/09 09:56:21;;;;;;;6.05;3.35;;;;;;;;;;5108662;28;20550;-50
2022/05/09 09:58:47;;;;;;;2.30;1.70;;;;;;;;;;5111600;28;20044;-51
2022/05/09 10:01:30;;;;;;;4.05;3.30;;;;;;;;;;5111193;28;20138;-47
2022/05/09 10:04:10;;;;;;;4.85;2.45;;;;;;;;;;5115773;28;20075;-52
2022/05/09 10:06:54;;;;;;;13.27;1.83;;;;;;;;;;5107457;28;20039;-50
2022/05/09 10:09:20;;;;;;;1.85;1.40;;;;;;;;;;5108836;28;20841;-49
2022/05/09 10:11:46;;;;;;;7.38;5.15;;;;;;;;;;5107898;28;20047;-51
2022/05/09 10:14:29;;;;;;;7.28;6.15;;;;;;;;;;5092123;28;20040;-52
2022/05/09 10:17:11;;;;;;;11.95;4.55;;;;;;;;;;5113076;28;20039;-50
2022/05/09 10:19:37;;;;;;;11.80;4.32;;;;;;;;;;5111478;28;20412;-47
2022/05/09 10:24:57;;;;;;;5.00;2.90;;;;;;;;;;5110247;28;20050;-51
2022/05/09 10:27:22;;;;;;;5.32;2.63;;;;;;;;;;5112202;28;20332;-47
2022/05/09 10:29:55;;;;;;;7.47;5.55;;;;;;;;;;5112960;28;20560;-54
2022/05/09 10:32:24;;;;;;;11.27;3.38;;;;;;;;;;5112556;28;20039;-50
2022/05/09 10:34:55;;;;;;;3.45;2.60;;;;;;;;;;5111624;28;20511;-51
2022/05/09 10:37:26;;;;;;;3.45;2.53;;;;;;;;;;5113862;28;20051;-51
2022/05/09 10:40:04;;;;;;;8.18;2.83;;;;;;;;;;5110759;28;20031;-53
2022/05/09 10:42:34;;;;;;;11.90;2.60;;;;;;;;;;5112890;28;20153;-51
2022/05/09 10:45:20;;;;;;;7.40;2.87;;;;;;;;;;5112621;28;20039;-52
2022/05/09 10:47:52;;;;;;;4.63;2.47;;;;;;;;;;5111337;28;20092;-52
2022/05/09 10:50:37;;;;;;;18.10;2.72;;;;;;;;;;5107568;28;20055;-46
2022/05/09 10:53:21;;;;;;;5.18;2.38;;;;;;;;;;5111133;28;20031;-47
2022/05/09 10:55:58;;;;;;;8.85;4.13;;;;;;;;;;5095471;28;20154;-47
2022/05/09 10:58:30;;;;;;;7.65;3.97;;;;;;;;;;5113387;28;20036;-49
2022/05/09 11:00:58;;;;;;;5.53;3.28;;;;;;;;;;5112063;28;20048;-50
2022/05/09 11:03:41;;;;;;;9.15;2.45;;;;;;;;;;5114655;28;20101;-48
2022/05/09 11:06:25;;;;;;;4.05;1.63;;;;;;;;;;5113372;28;20044;-50
2022/05/09 11:08:57;;;;;;;3.53;2.13;;;;;;;;;;5111171;28;20043;-50
2022/05/09 11:11:42;;;;;;;8.90;3.05;;;;;;;;;;5111797;28;20130;-49
2022/05/09 11:14:26;;;;;;;106.32;15.60;;;;;;;;;;5074029;28;20134;-45
2022/05/09 11:17:00;;;;;;;10.60;3.78;;;;;;;;;;5109176;28;20181;-47
2022/05/09 11:19:44;;;;;;;6.90;3.50;;;;;;;;;;5113737;28;20055;-46
2022/05/09 11:22:20;;;;;;;4.07;3.20;;;;;;;;;;5109602;28;20054;-53
2022/05/09 11:24:52;;;;;;;11.85;2.72;;;;;;;;;;5113649;28;20118;-52
2022/05/09 11:27:29;;;;;;;2.15;1.90;;;;;;;;;;5108693;28;20036;-47
2022/05/09 11:30:02;;;;;;;50.90;6.25;;;;;;;;;;5107520;28;20040;-50
2022/05/09 11:32:28;;;;;;;3.40;3.03;;;;;;;;;;5107882;28;20043;-49
2022/05/09 11:35:12;;;;;;;6.10;2.78;;;;;;;;;;5092441;28;20134;-50
2022/05/09 11:37:52;;;;;;;17.42;3.20;;;;;;;;;;5109881;28;20039;-49
2022/05/09 11:40:26;;;;;;;6.83;2.80;;;;;;;;;;5109697;28;20051;-51
2022/05/09 11:45:54;;;;;;;;;;;;;;;;;;5110858;28;20385;-46
2022/05/09 11:48:38;;;;;;;4.50;2.60;;;;;;;;;;5113701;28;20023;-46
2022/05/09 11:51:12;;;;;;;5.70;2.00;;;;;;;;;;5106332;28;20905;-48
2022/05/09 11:53:39;;;;;;;2.88;1.80;;;;;;;;;;5109743;28;20100;-44
2022/05/09 11:56:05;;;;;;;5.78;2.00;;;;;;;;;;5110332;28;20050;-44
2022/05/09 11:58:36;;;;;;;3.35;2.20;;;;;;;;;;5108028;28;20040;-46
2022/05/09 12:01:01;;;;;;;7.32;2.05;;;;;;;;;;5108871;28;20427;-44
2022/05/09 12:03:39;;;;;;;2.70;1.92;;;;;;;;;;5108800;28;20043;-45
2022/05/09 12:06:05;;;;;;;1.98;1.60;;;;;;;;;;5110542;28;20661;-42
2022/05/09 12:08:47;;;;;;;2.80;1.67;;;;;;;;;;5105270;28;20055;-43
2022/05/09 12:11:32;;;;;;;7.65;2.95;;;;;;;;;;5107705;28;20047;-46
2022/05/09 12:13:59;;;;;;;6.05;2.00;;;;;;;;;;5108088;28;20588;-42
2022/05/09 12:16:31;;;;;;;3.15;1.95;;;;;;;;;;5113284;28;20047;-43
2022/05/09 12:18:59;;;;;;;2.63;0.93;;;;;;;;;;5109331;28;20039;-44
2022/05/09 12:21:25;;;;;;;13.52;2.53;;;;;;;;;;5111341;28;20453;-43
2022/05/09 12:23:53;;;;;;;3.17;1.15;;;;;;;;;;5108793;28;20047;-42
2022/05/09 12:26:31;;;;;;;2.28;1.65;;;;;;;;;;5107835;28;20106;-44
2022/05/09 12:29:12;;;;;;;2.22;1.48;;;;;;;;;;5107117;28;20054;-42
2022/05/09 12:31:37;;;;;;;6.18;1.75;;;;;;;;;;5109224;28;20138;-46
2022/05/09 12:34:03;;;;;;;6.10;2.08;;;;;;;;;;5106011;28;20046;-47
2022/05/09 12:36:30;;;;;;;14.88;4.55;;;;;;;;;;5103377;28;20028;-41
2022/05/09 12:39:02;;;;;;;6.72;2.95;;;;;;;;;;5108481;28;20075;-45
2022/05/09 12:41:48;;;;;;;2.58;1.83;;;;;;;;;;5108411;28;20054;-42
2022/05/09 12:44:36;;;;;;;2.65;2.05;;;;;;;;;;5109248;28;20508;-43
2022/05/09 12:47:06;;;;;;;3.47;1.70;;;;;;;;;;5090599;28;20035;-43
2022/05/09 12:49:37;;;;;;;1.02;0.70;;;;;;;;;;5093004;28;20091;-43
2022/05/09 12:52:04;;;;;;;2.60;2.10;;;;;;;;;;5113673;28;20119;-41
2022/05/09 12:54:30;;;;;;;12.45;4.43;;;;;;;;;;5111585;28;20043;-44
2022/05/09 12:56:59;;;;;;;19.30;15.63;;;;;;;;;;5106904;28;20479;-45
2022/05/09 12:59:25;;;;;;;14.02;11.00;;;;;;;;;;5106387;28;20052;-47
2022/05/09 13:01:58;;;;;;;7.88;5.40;;;;;;;;;;5106992;28;20058;-44
2022/05/09 13:04:29;;;;;;;14.30;11.50;;;;;;;;;;5106857;28;20070;-42
2022/05/09 13:06:56;;;;;;;15.95;8.70;;;;;;;;;;5110908;28;20072;-41
2022/05/09 13:09:23;;;;;;;30.80;23.73;;;;;;;;;;5106832;28;20050;-41
2022/05/09 13:11:57;;;;;;;21.90;13.02;;;;;;;;;;5104419;28;20076;-45
2022/05/09 13:14:42;;;;;;;68.75;34.83;;;;;;;;;;5109577;28;20498;-41
2022/05/09 13:17:13;;;;;;;13.63;4.93;;;;;;;;;;5068596;28;20039;-43
2022/05/09 13:19:44;;;;;;;3.13;1.90;;;;;;;;;;5110879;28;20032;-44
2022/05/09 13:22:10;;;;;;;3.70;1.58;;;;;;;;;;5117619;28;20675;-41
2022/05/09 13:24:36;;;;;;;2.17;1.65;;;;;;;;;;5115667;28;20047;-41
2022/05/09 13:27:03;;;;;;;2.58;1.58;;;;;;;;;;5114672;28;20083;-41
2022/05/09 13:29:30;;;;;;;6.20;2.50;;;;;;;;;;5111603;28;20043;-42
2022/05/09 13:31:56;;;;;;;1.80;1.35;;;;;;;;;;5107883;28;20087;-43
2022/05/09 13:34:33;;;;;;;3.38;1.33;;;;;;;;;;5109908;28;20043;-42
2022/05/09 13:37:00;;;;;;;2.97;1.45;;;;;;;;;;5111000;28;20407;-46
2022/05/09 13:39:36;;;;;;;2.95;1.63;;;;;;;;;;5116610;28;20085;-43
2022/05/09 13:42:13;;;;;;;7.28;2.35;;;;;;;;;;5108722;28;20050;-42
2022/05/09 13:44:40;;;;;;;2.13;1.35;;;;;;;;;;5115037;28;20072;-41
2022/05/09 13:47:05;;;;;;;2.47;1.33;;;;;;;;;;5115642;28;20058;-43
2022/05/09 13:49:31;;;;;;;2.25;1.67;;;;;;;;;;5113900;28;20526;-44
2022/05/09 13:51:59;;;;;;;3.15;1.90;;;;;;;;;;5111601;28;20044;-48
2022/05/09 13:54:28;;;;;;;4.15;1.98;;;;;;;;;;5112351;28;20047;-41
2022/05/09 13:57:09;;;;;;;2.25;1.20;;;;;;;;;;5111886;28;20120;-45
2022/05/09 13:59:35;;;;;;;11.80;2.92;;;;;;;;;;5114327;28;20043;-41
2022/05/09 14:02:01;;;;;;;9.18;1.45;;;;;;;;;;5109725;28;20671;-43
2022/05/09 14:04:27;;;;;;;1.65;0.93;;;;;;;;;;5114015;28;20054;-44
2022/05/09 14:06:52;;;;;;;2.20;1.48;;;;;;;;;;5111041;28;20036;-43
2022/05/09 14:09:22;;;;;;;2.35;1.35;;;;;;;;;;5117081;28;20035;-44
2022/05/09 14:11:54;;;;;;;3.35;1.88;;;;;;;;;;5111683;28;20281;-44
2022/05/09 14:14:39;;;;;;;18.40;5.13;;;;;;;;;;5110265;28;20047;-41
2022/05/09 14:17:15;;;;;;;3.28;1.90;;;;;;;;;;5108869;28;20039;-41
2022/05/09 14:19:41;;;;;;;4.45;2.05;;;;;;;;;;5107025;28;20062;-47
2022/05/09 14:22:11;;;;;;;3.65;1.50;;;;;;;;;;5117408;28;20090;-41
2022/05/09 14:24:36;;;;;;;3.15;2.47;;;;;;;;;;5116940;28;20290;-41
2022/05/09 14:29:53;;;;;;;1.42;1.17;;;;;;;;;;5115402;28;20449;-47
2022/05/09 14:32:37;;;;;;;4.00;1.52;;;;;;;;;;5105577;28;20051;-41
2022/05/09 14:35:02;;;;;;;1.65;1.20;;;;;;;;;;5110220;28;20044;-43
2022/05/09 14:37:32;;;;;;;2.28;1.88;;;;;;;;;;5111194;28;20034;-41
2022/05/09 14:40:00;;;;;;;7.07;1.63;;;;;;;;;;5111263;28;20049;-42
2022/05/09 14:42:32;;;;;;;1.50;1.15;;;;;;;;;;5109088;28;20092;-42
2022/05/09 14:45:07;;;;;;;2.50;1.70;;;;;;;;;;5112090;28;20047;-41
2022/05/09 14:47:44;;;;;;;2.58;1.90;;;;;;;;;;5116569;28;20039;-41
2022/05/09 14:50:19;;;;;;;4.85;1.73;;;;;;;;;;5115105;28;20035;-41
2022/05/09 14:53:03;;;;;;;8.10;1.95;;;;;;;;;;5109964;28;20515;-41
2022/05/09 14:58:20;;;;;;;1.42;0.75;;;;;;;;;;5111026;28;20057;-42
2022/05/09 15:00:50;;;;;;;2.20;1.40;;;;;;;;;;5113874;28;20035;-42
2022/05/09 15:03:20;;;;;;;4.22;1.55;;;;;;;;;;5112561;28;20500;-43
2022/05/09 15:05:46;;;;;;;6.05;1.85;;;;;;;;;;5112759;28;20035;-41
2022/05/09 15:08:11;;;;;;;2.40;1.40;;;;;;;;;;5113656;28;20476;-43
2022/05/09 15:10:38;;;;;;;7.13;2.40;;;;;;;;;;5112357;28;20047;-41